createdAt,value
2023-04-10T00:00:02.164Z,8.20
2023-04-10T00:02:31.751Z,8.27
2023-04-10T00:04:59.218Z,7.65
2023-04-10T00:07:26.528Z,8.50
2023-04-10T00:09:53.345Z,8.68
2023-04-10T00:12:20.596Z,7.32
2023-04-10T00:14:47.300Z,7.70
2023-04-10T00:17:13.948Z,7.65
2023-04-10T00:19:40.674Z,7.63
2023-04-10T00:22:07.450Z,7.32
2023-04-10T00:24:34.180Z,6.57
2023-04-10T00:27:01.584Z,6.55
2023-04-10T00:29:28.216Z,6.82
2023-04-10T00:31:54.939Z,6.97
2023-04-10T00:34:21.783Z,6.93
2023-04-10T00:36:48.440Z,6.47
2023-04-10T00:39:15.454Z,6.95
2023-04-10T00:41:42.981Z,6.55
2023-04-10T00:44:09.826Z,6.80
2023-04-10T00:46:38.208Z,6.97
2023-04-10T00:49:06.276Z,6.47
2023-04-10T00:51:33.307Z,6.40
2023-04-10T00:54:02.766Z,6.30
2023-04-10T00:56:32.494Z,6.57
2023-04-10T00:58:59.544Z,6.57
2023-04-10T01:01:26.306Z,6.15
2023-04-10T01:03:54.665Z,5.78
2023-04-10T01:06:36.706Z,5.75
2023-04-10T01:09:17.543Z,5.90
2023-04-10T01:12:04.588Z,5.68
2023-04-10T01:14:54.606Z,5.53
2023-04-10T01:17:39.572Z,5.70
2023-04-10T01:20:13.598Z,5.65
2023-04-10T01:22:52.866Z,5.97
2023-04-10T01:25:33.527Z,5.80
2023-04-10T01:28:21.464Z,6.13
2023-04-10T01:30:52.702Z,5.93
2023-04-10T01:33:22.874Z,5.80
2023-04-10T01:35:52.521Z,6.13
2023-04-10T01:38:21.379Z,5.53
2023-04-10T01:40:53.250Z,5.45
2023-04-10T01:43:29.200Z,5.57
2023-04-10T01:45:58.245Z,6.10
2023-04-10T01:48:25.791Z,5.35
2023-04-10T01:50:54.365Z,5.68
2023-04-10T01:53:23.043Z,5.47
2023-04-10T01:55:50.843Z,5.97
2023-04-10T01:58:18.785Z,5.43
2023-04-10T02:00:46.452Z,6.00
2023-04-10T02:03:15.219Z,5.57
2023-04-10T02:06:14.915Z,5.75
2023-04-10T02:08:51.130Z,5.78
2023-04-10T02:11:40.298Z,5.75
2023-04-10T02:14:12.321Z,5.78
2023-04-10T02:16:41.204Z,5.70
2023-04-10T02:19:09.794Z,5.63
2023-04-10T02:21:37.770Z,5.57
2023-04-10T02:24:04.786Z,5.72
2023-04-10T02:26:58.219Z,6.32
2023-04-10T02:29:24.923Z,6.07
2023-04-10T02:31:51.733Z,5.30
2023-04-10T02:34:19.433Z,5.80
2023-04-10T02:36:46.192Z,6.15
2023-04-10T02:39:12.947Z,6.45
2023-04-10T02:41:48.530Z,6.32
2023-04-10T02:44:15.825Z,6.65
2023-04-10T02:46:44.527Z,6.10
2023-04-10T02:49:12.930Z,5.95
2023-04-10T02:51:39.707Z,6.22
2023-04-10T02:54:06.353Z,6.15
2023-04-10T02:56:35.185Z,6.70
2023-04-10T02:59:02.490Z,5.75
2023-04-10T03:01:30.904Z,6.28
2023-04-10T03:04:00.828Z,6.30
2023-04-10T03:06:31.714Z,6.85
2023-04-10T03:08:58.871Z,5.75
2023-04-10T03:11:27.287Z,6.28
2023-04-10T03:13:54.277Z,6.60
2023-04-10T03:16:21.474Z,6.10
2023-04-10T03:18:48.671Z,6.05
2023-04-10T03:21:16.631Z,5.93
2023-04-10T03:23:43.815Z,6.22
2023-04-10T03:26:11.302Z,6.45
2023-04-10T03:28:39.594Z,5.97
2023-04-10T03:31:06.621Z,6.82
2023-04-10T03:33:36.033Z,8.88
2023-04-10T03:36:04.150Z,7.82
2023-04-10T03:38:33.020Z,8.05
2023-04-10T03:40:59.891Z,8.00
2023-04-10T03:43:30.670Z,6.65
2023-04-10T03:45:58.061Z,7.43
2023-04-10T03:48:28.357Z,6.80
2023-04-10T03:50:55.571Z,6.60
2023-04-10T03:53:22.910Z,6.93
2023-04-10T03:55:52.407Z,6.53
2023-04-10T03:58:19.794Z,6.28
2023-04-10T04:00:47.053Z,6.03
2023-04-10T04:03:24.169Z,9.63
2023-04-10T04:06:02.520Z,9.43
2023-04-10T04:08:42.861Z,6.55
2023-04-10T04:11:12.380Z,6.28
2023-04-10T04:13:59.548Z,6.25
2023-04-10T04:16:49.687Z,6.40
2023-04-10T04:19:32.741Z,6.07
2023-04-10T04:22:23.977Z,5.90
2023-04-10T04:25:11.502Z,6.00
2023-04-10T04:27:57.713Z,5.97
2023-04-10T04:30:30.504Z,6.45
2023-04-10T04:33:31.825Z,6.72
2023-04-10T04:36:02.403Z,6.17
2023-04-10T04:38:55.266Z,6.25
2023-04-10T04:41:44.764Z,6.30
2023-04-10T04:44:21.999Z,6.50
2023-04-10T04:47:11.580Z,6.22
2023-04-10T04:50:01.077Z,5.80
2023-04-10T04:53:00.726Z,7.40
2023-04-10T04:55:33.373Z,6.40
2023-04-10T04:58:15.168Z,6.70
2023-04-10T05:00:54.671Z,6.75
2023-04-10T05:03:29.320Z,6.70
2023-04-10T05:06:23.096Z,6.47
2023-04-10T05:09:13.015Z,6.38
2023-04-10T05:12:02.406Z,6.72
2023-04-10T05:14:48.983Z,6.75
2023-04-10T05:17:28.551Z,6.95
2023-04-10T05:20:13.885Z,6.10
2023-04-10T05:22:54.716Z,6.75
2023-04-10T05:25:44.609Z,6.43
2023-04-10T05:28:32.790Z,6.85
2023-04-10T05:31:14.124Z,6.65
2023-04-10T05:33:55.486Z,6.18
2023-04-10T05:36:32.903Z,7.13
2023-04-10T05:39:28.476Z,5.80
2023-04-10T05:42:07.858Z,6.68
2023-04-10T05:44:45.771Z,6.90
2023-04-10T05:47:31.251Z,6.78
2023-04-10T05:50:18.262Z,7.35
2023-04-10T05:53:14.111Z,6.47
2023-04-10T05:55:59.522Z,6.20
2023-04-10T05:58:46.551Z,6.75
2023-04-10T06:01:35.660Z,6.75
2023-04-10T06:04:03.804Z,6.53
2023-04-10T06:06:31.450Z,6.82
2023-04-10T06:08:58.287Z,6.80
2023-04-10T06:11:24.945Z,7.10
2023-04-10T06:13:54.718Z,6.80
2023-04-10T06:16:26.884Z,6.53
2023-04-10T06:18:54.803Z,6.75
2023-04-10T06:21:21.689Z,6.85
2023-04-10T06:23:48.482Z,6.63
2023-04-10T06:26:15.476Z,7.05
2023-04-10T06:28:42.278Z,6.57
2023-04-10T06:31:09.111Z,6.85
2023-04-10T06:33:38.930Z,6.63
2023-04-10T06:36:08.788Z,6.57
2023-04-10T06:41:09.152Z,6.35
2023-04-10T06:43:37.376Z,6.82
2023-04-10T06:46:05.038Z,6.70
2023-04-10T06:48:32.422Z,6.47
2023-04-10T06:51:02.741Z,6.07
2023-04-10T06:53:30.177Z,6.63
2023-04-10T06:55:57.209Z,6.70
2023-04-10T06:58:24.724Z,6.53
2023-04-10T07:00:51.568Z,6.65
2023-04-10T07:03:18.487Z,6.50
2023-04-10T07:05:45.415Z,6.18
2023-04-10T07:08:12.047Z,6.78
2023-04-10T07:10:38.691Z,5.90
2023-04-10T07:13:05.340Z,6.30
2023-04-10T07:15:32.637Z,6.40
2023-04-10T07:17:59.220Z,6.47
2023-04-10T07:20:26.041Z,6.40
2023-04-10T07:22:52.907Z,6.05
2023-04-10T07:25:19.531Z,5.65
2023-04-10T07:27:46.237Z,6.35
2023-04-10T07:30:14.045Z,6.15
2023-04-10T07:32:42.449Z,5.75
2023-04-10T07:35:09.791Z,5.65
2023-04-10T07:37:36.518Z,6.22
2023-04-10T07:40:03.631Z,6.20
2023-04-10T07:42:30.569Z,6.10
2023-04-10T07:44:57.348Z,6.15
2023-04-10T07:47:24.528Z,6.00
2023-04-10T07:49:51.555Z,5.72
2023-04-10T07:52:18.409Z,5.63
2023-04-10T07:54:45.488Z,5.47
2023-04-10T07:57:12.087Z,5.90
2023-04-10T07:59:38.983Z,5.93
2023-04-10T08:02:06.317Z,5.57
2023-04-10T08:04:33.397Z,6.20
2023-04-10T08:07:00.303Z,5.65
2023-04-10T08:09:26.942Z,5.70
2023-04-10T08:11:53.625Z,5.25
2023-04-10T08:14:20.276Z,6.25
2023-04-10T08:16:46.988Z,6.18
2023-04-10T08:19:14.088Z,6.00
2023-04-10T08:21:40.775Z,6.15
2023-04-10T08:24:07.509Z,6.63
2023-04-10T08:26:34.067Z,5.82
2023-04-10T08:29:03.080Z,6.32
2023-04-10T08:31:30.264Z,5.82
2023-04-10T08:34:00.154Z,6.13
2023-04-10T08:36:27.781Z,6.00
2023-04-10T08:38:55.573Z,6.18
2023-04-10T08:41:22.199Z,5.68
2023-04-10T08:43:50.830Z,6.10
2023-04-10T08:46:17.663Z,5.75
2023-04-10T08:49:00.009Z,5.93
2023-04-10T08:51:42.914Z,5.45
2023-04-10T08:54:14.396Z,5.30
2023-04-10T08:56:44.327Z,5.80
2023-04-10T08:59:11.216Z,5.43
2023-04-10T09:01:40.308Z,5.35
2023-04-10T09:04:07.319Z,5.60
2023-04-10T09:06:34.622Z,5.38
2023-04-10T09:12:07.026Z,5.90
2023-04-10T09:14:35.793Z,5.90
2023-04-10T09:17:28.690Z,5.90
2023-04-10T09:19:56.734Z,5.55
2023-04-10T09:22:34.558Z,5.88
2023-04-10T09:25:03.164Z,5.88
2023-04-10T09:27:35.653Z,5.65
2023-04-10T09:30:03.671Z,6.10
2023-04-10T09:32:41.968Z,5.57
2023-04-10T09:35:11.360Z,5.60
2023-04-10T09:37:38.618Z,5.60
2023-04-10T09:40:06.467Z,5.57
2023-04-10T09:42:37.423Z,5.10
2023-04-10T09:45:05.559Z,5.38
2023-04-10T09:47:33.116Z,5.63
2023-04-10T09:50:01.043Z,5.30
2023-04-10T09:52:33.182Z,5.47
2023-04-10T09:55:05.061Z,5.22
2023-04-10T09:57:33.734Z,5.80
2023-04-10T10:00:06.867Z,5.50
2023-04-10T10:02:37.290Z,5.07
2023-04-10T10:05:05.385Z,5.03
2023-04-10T10:07:32.429Z,5.13
2023-04-10T10:10:00.648Z,5.13
2023-04-10T10:12:48.921Z,5.13
2023-04-10T10:15:36.658Z,5.32
2023-04-10T10:18:34.143Z,5.57
2023-04-10T10:21:01.200Z,5.30
2023-04-10T10:23:28.830Z,4.93
2023-04-10T10:25:58.813Z,5.07
2023-04-10T10:28:27.937Z,4.75
2023-04-10T10:30:55.751Z,4.88
2023-04-10T10:33:23.216Z,4.53
2023-04-10T10:35:50.297Z,4.97
2023-04-10T10:38:18.877Z,4.07
2023-04-10T10:40:57.390Z,4.82
2023-04-10T10:43:49.686Z,4.40
2023-04-10T10:46:39.583Z,4.40
2023-04-10T10:49:06.397Z,4.47
2023-04-10T10:51:50.725Z,4.38
2023-04-10T10:54:34.550Z,3.90
2023-04-10T10:59:48.124Z,4.05
2023-04-10T11:02:19.813Z,4.03
2023-04-10T11:04:50.677Z,3.85
2023-04-10T11:07:18.147Z,3.90
2023-04-10T11:09:45.854Z,4.00
2023-04-10T11:12:12.468Z,3.97
2023-04-10T11:14:41.974Z,4.00
2023-04-10T11:17:10.864Z,3.50
2023-04-10T11:20:00.796Z,3.67
2023-04-10T11:22:28.129Z,3.60
2023-04-10T11:25:00.138Z,3.47
2023-04-10T11:27:41.933Z,3.63
2023-04-10T11:30:44.489Z,4.07
2023-04-10T11:33:19.269Z,3.67
2023-04-10T11:35:46.445Z,3.58
2023-04-10T11:38:15.780Z,3.58
2023-04-10T11:41:06.788Z,3.53
2023-04-10T11:43:35.082Z,3.10
2023-04-10T11:46:07.769Z,3.40
2023-04-10T11:48:35.523Z,3.38
2023-04-10T11:51:12.691Z,3.38
2023-04-10T11:53:42.722Z,3.08
2023-04-10T11:56:21.264Z,3.17
2023-04-10T11:58:50.961Z,3.33
2023-04-10T12:01:21.353Z,3.22
2023-04-10T12:03:48.178Z,3.53
2023-04-10T12:06:15.650Z,3.25
2023-04-10T12:08:51.113Z,3.20
2023-04-10T12:11:20.536Z,3.40
2023-04-10T12:13:48.324Z,3.38
2023-04-10T12:16:15.604Z,3.00
2023-04-10T12:18:42.802Z,3.03
2023-04-10T12:21:09.592Z,2.90
2023-04-10T12:23:41.005Z,3.10
2023-04-10T12:26:18.919Z,3.20
2023-04-10T12:28:55.992Z,3.53
2023-04-10T12:31:51.809Z,3.10
2023-04-10T12:34:18.658Z,3.40
2023-04-10T12:36:52.666Z,2.80
2023-04-10T12:39:24.466Z,3.50
2023-04-10T12:41:51.933Z,3.17
2023-04-10T12:44:19.244Z,3.10
2023-04-10T12:46:46.378Z,3.08
2023-04-10T12:49:14.880Z,2.90
2023-04-10T12:51:50.286Z,2.85
2023-04-10T12:54:46.476Z,3.00
2023-04-10T12:57:27.660Z,3.05
2023-04-10T12:59:55.730Z,2.95
2023-04-10T13:02:23.672Z,3.03
2023-04-10T13:04:50.369Z,3.13
2023-04-10T13:07:17.190Z,2.85
2023-04-10T13:09:43.869Z,2.92
2023-04-10T13:12:11.075Z,2.90
2023-04-10T13:14:37.918Z,2.95
2023-04-10T13:17:07.262Z,3.10
2023-04-10T13:19:34.135Z,3.13
2023-04-10T13:22:01.940Z,2.60
2023-04-10T13:24:31.577Z,2.95
2023-04-10T13:27:01.462Z,2.97
2023-04-10T13:29:28.998Z,4.13
2023-04-10T13:31:55.900Z,4.45
2023-04-10T13:34:22.809Z,3.83
2023-04-10T13:36:50.116Z,3.33
2023-04-10T13:39:18.596Z,3.30
2023-04-10T13:41:45.311Z,3.20
2023-04-10T13:44:12.030Z,3.25
2023-04-10T13:46:38.721Z,4.03
2023-04-10T13:49:05.466Z,2.92
2023-04-10T13:51:32.305Z,2.63
2023-04-10T13:54:00.398Z,4.35
2023-04-10T13:56:27.058Z,3.58
2023-04-10T13:58:53.953Z,3.30
2023-04-10T14:01:21.235Z,3.70
2023-04-10T14:03:48.838Z,3.45
2023-04-10T14:06:16.214Z,3.80
2023-04-10T14:08:42.935Z,3.30
2023-04-10T14:11:11.110Z,4.18
2023-04-10T14:13:37.748Z,3.50
2023-04-10T14:16:04.684Z,3.70
2023-04-10T14:18:31.486Z,3.58
2023-04-10T14:20:58.963Z,3.38
2023-04-10T14:23:28.196Z,3.85
2023-04-10T14:26:02.609Z,3.92
2023-04-10T14:28:40.425Z,3.65
2023-04-10T14:31:08.132Z,4.18
2023-04-10T14:33:43.084Z,3.40
2023-04-10T14:36:11.803Z,3.40
2023-04-10T14:38:42.848Z,3.35
2023-04-10T14:41:17.731Z,4.03
2023-04-10T14:46:17.554Z,3.70
2023-04-10T14:48:45.046Z,3.57
2023-04-10T14:51:13.156Z,3.50
2023-04-10T14:53:40.186Z,3.50
2023-04-10T14:56:12.276Z,3.60
2023-04-10T14:58:39.804Z,4.00
2023-04-10T15:01:11.709Z,3.00
2023-04-10T15:03:41.487Z,3.00
2023-04-10T15:06:08.185Z,2.92
2023-04-10T15:08:34.939Z,3.67
2023-04-10T15:11:05.022Z,2.85
2023-04-10T15:13:32.293Z,2.70
2023-04-10T15:16:00.639Z,3.17
2023-04-10T15:18:27.911Z,2.80
2023-04-10T15:20:56.333Z,3.00
2023-04-10T15:23:31.926Z,3.28
2023-04-10T15:26:00.027Z,2.97
2023-04-10T15:28:28.362Z,3.50
2023-04-10T15:30:57.974Z,3.50
2023-04-10T15:33:31.253Z,3.28
2023-04-10T15:36:01.014Z,3.50
2023-04-10T15:38:29.000Z,3.80
2023-04-10T15:40:59.246Z,3.65
2023-04-10T15:43:28.814Z,5.10
2023-04-10T15:45:59.507Z,3.55
2023-04-10T15:48:26.528Z,4.47
2023-04-10T15:50:53.629Z,4.07
2023-04-10T15:53:24.675Z,3.50
2023-04-10T15:55:56.963Z,3.10
2023-04-10T15:58:48.070Z,4.13
2023-04-10T16:01:15.377Z,3.35
2023-04-10T16:03:42.715Z,2.90
2023-04-10T16:06:10.016Z,3.10
2023-04-10T16:08:40.886Z,3.38
2023-04-10T16:11:08.399Z,3.40
2023-04-10T16:13:36.983Z,3.30
2023-04-10T16:16:08.646Z,3.55
2023-04-10T16:18:35.794Z,3.42
2023-04-10T16:21:04.329Z,3.60
2023-04-10T16:23:31.544Z,3.90
2023-04-10T16:25:58.854Z,3.70
2023-04-10T16:28:26.329Z,3.83
2023-04-10T16:30:53.541Z,4.22
2023-04-10T16:33:20.410Z,3.92
2023-04-10T16:35:48.447Z,6.97
2023-04-10T16:38:15.122Z,8.70
2023-04-10T16:40:41.895Z,5.90
2023-04-10T16:43:08.561Z,7.65
2023-04-10T16:45:35.641Z,28.90
2023-04-10T16:48:02.306Z,9.48
2023-04-10T16:50:29.199Z,17.60
2023-04-10T16:52:56.381Z,11.13
2023-04-10T16:55:22.989Z,6.47
2023-04-10T16:57:50.914Z,5.28
2023-04-10T17:00:18.258Z,4.93
2023-04-10T17:02:45.530Z,8.48
2023-04-10T17:05:15.898Z,6.32
2023-04-10T17:07:44.574Z,7.30
2023-04-10T17:10:11.976Z,6.60
2023-04-10T17:12:39.092Z,6.47
2023-04-10T17:15:06.452Z,9.35
2023-04-10T17:17:34.180Z,6.10
2023-04-10T17:20:01.101Z,7.13
2023-04-10T17:22:27.709Z,8.85
2023-04-10T17:24:54.252Z,7.15
2023-04-10T17:27:20.900Z,17.83
2023-04-10T17:29:47.804Z,19.23
2023-04-10T17:32:14.352Z,10.82
2023-04-10T17:34:41.079Z,15.55
2023-04-10T17:37:07.753Z,15.10
2023-04-10T17:39:34.344Z,16.27
2023-04-10T17:42:01.541Z,16.40
2023-04-10T17:44:28.253Z,7.57
2023-04-10T17:46:55.229Z,7.47
2023-04-10T17:49:22.291Z,8.27
2023-04-10T17:51:49.860Z,8.65
2023-04-10T17:54:16.528Z,6.88
2023-04-10T17:56:43.186Z,8.80
2023-04-10T17:59:11.136Z,6.88
2023-04-10T18:01:37.984Z,11.68
2023-04-10T18:04:05.803Z,10.50
2023-04-10T18:06:33.049Z,6.13
2023-04-10T18:09:00.376Z,5.20
2023-04-10T18:11:27.225Z,4.53
2023-04-10T18:13:53.974Z,5.20
2023-04-10T18:16:20.685Z,4.43
2023-04-10T18:18:47.460Z,4.60
2023-04-10T18:21:15.402Z,4.53
2023-04-10T18:23:42.262Z,4.32
2023-04-10T18:26:09.313Z,4.60
2023-04-10T18:28:36.508Z,4.30
2023-04-10T18:31:03.294Z,3.80
2023-04-10T18:33:30.723Z,4.35
2023-04-10T18:35:59.182Z,3.78
2023-04-10T18:38:26.783Z,3.83
2023-04-10T18:40:57.621Z,3.53
2023-04-10T18:43:25.661Z,2.75
2023-04-10T18:45:52.374Z,2.83
2023-04-10T18:48:19.455Z,2.92
2023-04-10T18:50:46.423Z,2.95
2023-04-10T18:53:13.564Z,2.97
2023-04-10T18:55:40.380Z,3.00
2023-04-10T18:58:07.446Z,3.20
2023-04-10T19:00:34.358Z,3.00
2023-04-10T19:03:01.348Z,2.90
2023-04-10T19:05:32.500Z,3.15
2023-04-10T19:08:04.205Z,2.72
2023-04-10T19:10:32.602Z,2.97
2023-04-10T19:12:59.356Z,2.60
2023-04-10T19:15:27.140Z,2.97
2023-04-10T19:17:54.874Z,2.65
2023-04-10T19:20:52.151Z,2.47
2023-04-10T19:23:09.694Z,2.80
2023-04-10T19:25:36.873Z,2.47
2023-04-10T19:28:03.984Z,2.67
2023-04-10T19:30:31.142Z,2.70
2023-04-10T19:32:57.997Z,2.08
2023-04-10T19:35:24.732Z,2.80
2023-04-10T19:37:51.442Z,2.63
2023-04-10T19:40:20.096Z,2.08
2023-04-10T19:42:46.831Z,2.38
2023-04-10T19:45:13.609Z,3.15
2023-04-10T19:47:40.626Z,2.58
2023-04-10T19:50:08.124Z,2.20
2023-04-10T19:52:34.962Z,2.10
2023-04-10T19:55:02.027Z,4.30
2023-04-10T19:57:31.073Z,2.50
2023-04-10T19:59:58.880Z,3.08
2023-04-10T20:02:26.994Z,2.53
2023-04-10T20:04:54.110Z,2.45
2023-04-10T20:07:21.072Z,2.90
2023-04-10T20:09:47.769Z,2.88
2023-04-10T20:12:16.147Z,3.03
2023-04-10T20:14:44.753Z,3.50
2023-04-10T20:17:12.360Z,3.05
2023-04-10T20:19:39.539Z,2.95
2023-04-10T20:22:07.303Z,2.83
2023-04-10T20:24:33.906Z,3.45
2023-04-10T20:27:01.542Z,2.72
2023-04-10T20:29:28.378Z,2.80
2023-04-10T20:31:55.570Z,3.15
2023-04-10T20:34:22.338Z,3.40
2023-04-10T20:36:49.165Z,3.67
2023-04-10T20:39:16.532Z,3.03
2023-04-10T20:41:43.219Z,3.33
2023-04-10T20:44:09.831Z,3.22
2023-04-10T20:46:36.564Z,3.42
2023-04-10T20:49:03.508Z,2.92
2023-04-10T20:51:33.873Z,3.10
2023-04-10T20:54:00.751Z,3.10
2023-04-10T20:56:36.753Z,3.20
2023-04-10T20:59:09.279Z,3.15
2023-04-10T21:01:36.117Z,3.10
2023-04-10T21:04:02.974Z,2.80
2023-04-10T21:06:30.213Z,2.75
2023-04-10T21:08:56.939Z,3.35
2023-04-10T21:11:23.581Z,3.33
2023-04-10T21:13:50.391Z,3.38
2023-04-10T21:16:16.985Z,3.13
2023-04-10T21:18:43.654Z,3.20
2023-04-10T21:21:11.255Z,3.50
2023-04-10T21:23:37.972Z,3.30
2023-04-10T21:26:06.340Z,3.20
2023-04-10T21:28:33.253Z,3.10
2023-04-10T21:31:00.392Z,2.95
2023-04-10T21:33:27.016Z,3.03
2023-04-10T21:35:53.982Z,3.00
2023-04-10T21:38:20.942Z,3.17
2023-04-10T21:40:51.944Z,4.30
2023-04-10T21:43:19.679Z,3.50
2023-04-10T21:45:46.532Z,3.30
2023-04-10T21:48:13.525Z,3.47
2023-04-10T21:50:40.813Z,3.22
2023-04-10T21:53:07.553Z,3.25
2023-04-10T21:55:34.334Z,4.13
2023-04-10T21:58:01.260Z,3.50
2023-04-10T22:00:29.076Z,3.50
2023-04-10T22:02:57.509Z,4.18
2023-04-10T22:05:24.637Z,3.88
2023-04-10T22:07:52.122Z,3.97
2023-04-10T22:10:20.276Z,4.10
2023-04-10T22:12:48.774Z,3.38
2023-04-10T22:15:16.533Z,4.50
2023-04-10T22:17:43.505Z,4.22
2023-04-10T22:20:10.966Z,3.55
2023-04-10T22:22:37.962Z,3.53
2023-04-10T22:25:05.544Z,3.70
2023-04-10T22:27:32.913Z,4.20
2023-04-10T22:30:03.841Z,3.33
2023-04-10T22:32:32.259Z,3.45
2023-04-10T22:35:00.717Z,3.45
2023-04-10T22:37:27.928Z,4.25
2023-04-10T22:39:57.400Z,3.67
2023-04-10T22:42:24.170Z,3.65
2023-04-10T22:44:51.086Z,3.42
2023-04-10T22:47:18.024Z,3.65
2023-04-10T22:49:45.836Z,3.85
2023-04-10T22:52:13.660Z,3.58
2023-04-10T22:54:40.377Z,4.00
2023-04-10T22:57:20.386Z,3.55
2023-04-10T22:59:50.749Z,3.55
2023-04-10T23:02:17.548Z,4.93
2023-04-10T23:04:44.407Z,3.85
2023-04-10T23:07:11.006Z,4.07
2023-04-10T23:09:37.719Z,4.47
2023-04-10T23:12:04.629Z,4.78
2023-04-10T23:14:34.766Z,3.40
2023-04-10T23:17:01.977Z,4.10
2023-04-10T23:19:28.865Z,4.00
2023-04-10T23:21:55.723Z,4.32
2023-04-10T23:24:22.464Z,4.18
2023-04-10T23:26:49.557Z,5.10
2023-04-10T23:29:16.504Z,4.25
2023-04-10T23:31:44.160Z,4.63
2023-04-10T23:34:11.638Z,4.10
2023-04-10T23:36:40.405Z,4.25
2023-04-10T23:39:07.031Z,4.82
2023-04-10T23:41:33.869Z,4.30
2023-04-10T23:44:00.645Z,4.65
2023-04-10T23:46:27.529Z,5.25
2023-04-10T23:48:55.374Z,3.78
2023-04-10T23:51:22.062Z,4.65
2023-04-10T23:53:49.035Z,4.45
2023-04-10T23:56:15.804Z,4.55
2023-04-10T23:58:42.434Z,4.03
